DRGN03 YAMB-YAMB
Flight info
| Callsign | DRGN03 |
|---|---|
| Flight time | 3h 53m |
| Altitude | 32000 |
| Route | TATEN DCT APAGI DCT ALDAR W128 SANAD DCT YWLM DCT WLM088025 DCT 331214S1525849E 325119S1523314E 321502S1524728E 314719S1530040E 311943S1531412E 304437S1533041E 294457S1551309E DCT LAROS DCT SEMAJ DCT CG |
| Aircraft | A332/H-SDE3GHIJ2J3J5M1RVWXY/LB2D1 |
Departure
| Time | 2026-04-30 08:38 |
|---|---|
| Airport | RAAF Base Amberley (YAMB) |
Arrival
| Time | 2026-04-30 12:31 |
|---|---|
| Airport | RAAF Base Amberley (YAMB) |
| Time | Latitude | Longitude | Altitude | Speed | Heading |
|---|---|---|---|---|---|
| 2026-04-30 08:24 | -27.62539 | 152.70234 | 101 ft | 0 kts | 339° |
| 2026-04-30 08:32 | -27.62523 | 152.70227 | 102 ft | 5 kts | 339° |
| 2026-04-30 08:32 | -27.62481 | 152.70245 | 102 ft | 8 kts | 46° |
| 2026-04-30 08:32 | -27.62450 | 152.70318 | 102 ft | 13 kts | 71° |
| 2026-04-30 08:32 | -27.62401 | 152.70385 | 103 ft | 11 kts | 22° |
| 2026-04-30 08:33 | -27.62317 | 152.70371 | 105 ft | 14 kts | 339° |
| 2026-04-30 08:33 | -27.62240 | 152.70376 | 105 ft | 10 kts | 25° |
| 2026-04-30 08:33 | -27.62226 | 152.70398 | 106 ft | 0 kts | 59° |
| 2026-04-30 08:36 | -27.62224 | 152.70402 | 105 ft | 2 kts | 59° |
| 2026-04-30 08:36 | -27.62217 | 152.70420 | 106 ft | 3 kts | 66° |
| 2026-04-30 08:36 | -27.62206 | 152.70451 | 106 ft | 5 kts | 69° |
| 2026-04-30 08:36 | -27.62193 | 152.70502 | 108 ft | 8 kts | 80° |
| 2026-04-30 08:37 | -27.62228 | 152.70549 | 108 ft | 8 kts | 150° |
| 2026-04-30 08:37 | -27.62234 | 152.70550 | 108 ft | 0 kts | 159° |
| 2026-04-30 08:37 | -27.62420 | 152.70632 | 107 ft | 72 kts | 159° |
| 2026-04-30 08:37 | -27.63141 | 152.70951 | 107 ft | 147 kts | 158° |
| 2026-04-30 08:38 | -27.64193 | 152.71423 | 496 ft | 166 kts | 159° |
| 2026-04-30 08:38 | -27.65249 | 152.71893 | 1353 ft | 162 kts | 158° |
| 2026-04-30 08:38 | -27.66284 | 152.72344 | 2206 ft | 157 kts | 156° |
| 2026-04-30 08:38 | -27.67312 | 152.72797 | 2774 ft | 165 kts | 157° |
| 2026-04-30 08:39 | -27.68437 | 152.73028 | 3461 ft | 168 kts | 175° |
| 2026-04-30 08:39 | -27.69658 | 152.72820 | 3892 ft | 186 kts | 184° |
| 2026-04-30 08:39 | -27.70981 | 152.72552 | 4254 ft | 199 kts | 185° |
| 2026-04-30 08:39 | -27.72353 | 152.72258 | 4779 ft | 202 kts | 185° |
| 2026-04-30 08:40 | -27.73739 | 152.71936 | 5317 ft | 204 kts | 186° |
| 2026-04-30 08:40 | -27.75168 | 152.71589 | 5675 ft | 220 kts | 187° |
| 2026-04-30 08:40 | -27.76742 | 152.71209 | 5967 ft | 241 kts | 187° |
| 2026-04-30 08:40 | -27.78450 | 152.70795 | 6234 ft | 259 kts | 187° |
| 2026-04-30 08:41 | -27.80266 | 152.70355 | 6638 ft | 271 kts | 188° |
| 2026-04-30 08:41 | -27.82105 | 152.69905 | 7386 ft | 272 kts | 188° |
| 2026-04-30 08:41 | -27.83946 | 152.69459 | 8067 ft | 276 kts | 188° |
| 2026-04-30 08:41 | -27.85843 | 152.69002 | 8779 ft | 280 kts | 188° |
| 2026-04-30 08:42 | -27.87762 | 152.68542 | 9514 ft | 284 kts | 188° |
| 2026-04-30 08:42 | -27.89710 | 152.68075 | 10229 ft | 289 kts | 189° |
| 2026-04-30 08:42 | -27.91747 | 152.67589 | 10490 ft | 310 kts | 189° |
| 2026-04-30 08:42 | -27.93936 | 152.67059 | 10710 ft | 332 kts | 190° |
| 2026-04-30 08:43 | -27.96226 | 152.66499 | 11258 ft | 340 kts | 190° |
| 2026-04-30 08:43 | -27.98550 | 152.65930 | 11983 ft | 343 kts | 190° |
| 2026-04-30 08:43 | -28.00903 | 152.65358 | 12695 ft | 347 kts | 190° |
| 2026-04-30 08:43 | -28.03281 | 152.64782 | 13417 ft | 351 kts | 191° |
| 2026-04-30 08:44 | -28.05693 | 152.64200 | 14140 ft | 355 kts | 191° |
| 2026-04-30 08:44 | -28.08127 | 152.63612 | 14764 ft | 359 kts | 191° |
| 2026-04-30 08:44 | -28.10588 | 152.63016 | 15418 ft | 363 kts | 191° |
| 2026-04-30 08:44 | -28.12875 | 152.62462 | 16022 ft | 367 kts | 191° |
| 2026-04-30 08:45 | -28.15378 | 152.61858 | 16689 ft | 370 kts | 190° |
| 2026-04-30 08:45 | -28.17886 | 152.61261 | 17319 ft | 374 kts | 190° |
| 2026-04-30 08:45 | -28.20482 | 152.60641 | 17953 ft | 378 kts | 191° |
| 2026-04-30 08:45 | -28.23035 | 152.60026 | 18585 ft | 382 kts | 191° |
| 2026-04-30 08:46 | -28.25651 | 152.59393 | 19162 ft | 385 kts | 191° |
| 2026-04-30 08:46 | -28.28285 | 152.58752 | 19785 ft | 388 kts | 191° |
| 2026-04-30 08:46 | -28.30930 | 152.58107 | 20407 ft | 390 kts | 192° |
| 2026-04-30 08:46 | -28.33598 | 152.57455 | 21026 ft | 393 kts | 192° |
| 2026-04-30 08:47 | -28.36284 | 152.56798 | 21652 ft | 396 kts | 192° |
| 2026-04-30 08:47 | -28.38996 | 152.56135 | 22260 ft | 400 kts | 192° |
| 2026-04-30 08:47 | -28.41728 | 152.55468 | 22904 ft | 403 kts | 193° |
| 2026-04-30 08:47 | -28.44485 | 152.54794 | 23543 ft | 407 kts | 193° |
| 2026-04-30 08:48 | -28.47284 | 152.54210 | 24117 ft | 411 kts | 187° |
| 2026-04-30 08:48 | -28.50157 | 152.54015 | 24675 ft | 415 kts | 181° |
| 2026-04-30 08:48 | -28.53015 | 152.54218 | 25213 ft | 420 kts | 174° |
| 2026-04-30 08:48 | -28.55926 | 152.54628 | 25713 ft | 424 kts | 174° |
| 2026-04-30 08:49 | -28.58876 | 152.55028 | 26264 ft | 427 kts | 174° |
| 2026-04-30 08:49 | -28.61839 | 152.55425 | 26787 ft | 431 kts | 174° |
| 2026-04-30 08:49 | -28.64827 | 152.55827 | 27324 ft | 434 kts | 174° |
| 2026-04-30 08:49 | -28.67836 | 152.56241 | 27832 ft | 438 kts | 174° |
| 2026-04-30 08:50 | -28.70873 | 152.56666 | 28355 ft | 441 kts | 174° |
| 2026-04-30 08:50 | -28.73941 | 152.57090 | 28864 ft | 445 kts | 174° |
| 2026-04-30 08:50 | -28.77024 | 152.57511 | 29373 ft | 448 kts | 174° |
| 2026-04-30 08:50 | -28.80145 | 152.57932 | 29873 ft | 452 kts | 175° |
| 2026-04-30 08:51 | -28.83289 | 152.58000 | 30348 ft | 453 kts | 186° |
| 2026-04-30 08:51 | -28.86401 | 152.57400 | 30818 ft | 453 kts | 197° |
| 2026-04-30 08:51 | -28.89316 | 152.56193 | 31276 ft | 453 kts | 207° |
| 2026-04-30 08:51 | -28.92167 | 152.54632 | 31749 ft | 455 kts | 207° |
| 2026-04-30 08:52 | -28.95042 | 152.53072 | 32192 ft | 459 kts | 207° |
| 2026-04-30 08:52 | -28.97938 | 152.51506 | 32350 ft | 462 kts | 207° |
| 2026-04-30 08:52 | -29.00869 | 152.49918 | 32380 ft | 472 kts | 207° |
| 2026-04-30 08:53 | -29.06922 | 152.46633 | 32388 ft | 488 kts | 207° |
| 2026-04-30 08:53 | -29.13076 | 152.43290 | 32388 ft | 489 kts | 207° |
| 2026-04-30 08:54 | -29.19231 | 152.39941 | 32386 ft | 490 kts | 207° |
| 2026-04-30 08:54 | -29.25388 | 152.36586 | 32389 ft | 489 kts | 207° |
| 2026-04-30 08:55 | -29.31511 | 152.33259 | 32397 ft | 490 kts | 207° |
| 2026-04-30 08:55 | -29.37664 | 152.29902 | 32397 ft | 490 kts | 207° |
| 2026-04-30 08:56 | -29.43813 | 152.26535 | 32401 ft | 489 kts | 207° |
| 2026-04-30 08:56 | -29.49960 | 152.23165 | 32397 ft | 490 kts | 207° |
| 2026-04-30 08:57 | -29.56085 | 152.19803 | 32400 ft | 490 kts | 207° |
| 2026-04-30 08:57 | -29.62345 | 152.16699 | 32403 ft | 491 kts | 201° |
| 2026-04-30 08:58 | -29.68773 | 152.14007 | 32411 ft | 490 kts | 201° |
| 2026-04-30 08:58 | -29.75182 | 152.11302 | 32417 ft | 490 kts | 201° |
| 2026-04-30 08:59 | -29.81601 | 152.08591 | 32415 ft | 490 kts | 201° |
| 2026-04-30 08:59 | -29.87971 | 152.05899 | 32420 ft | 490 kts | 201° |
| 2026-04-30 09:00 | -29.94382 | 152.03188 | 32420 ft | 490 kts | 201° |
| 2026-04-30 09:00 | -30.00783 | 152.00476 | 32426 ft | 490 kts | 201° |
| 2026-04-30 09:01 | -30.07186 | 151.97760 | 32424 ft | 490 kts | 201° |
| 2026-04-30 09:01 | -30.13590 | 151.95040 | 32425 ft | 490 kts | 201° |
| 2026-04-30 09:02 | -30.23183 | 151.90960 | 32430 ft | 490 kts | 201° |
| 2026-04-30 09:02 | -30.29534 | 151.88257 | 32420 ft | 489 kts | 201° |
| 2026-04-30 09:03 | -30.35930 | 151.85542 | 32425 ft | 490 kts | 201° |
| 2026-04-30 09:03 | -30.42319 | 151.82815 | 32428 ft | 489 kts | 201° |
| 2026-04-30 09:04 | -30.47634 | 151.80540 | 32426 ft | 489 kts | 201° |
| 2026-04-30 09:04 | -30.54013 | 151.77806 | 32422 ft | 489 kts | 201° |
| 2026-04-30 09:05 | -30.60391 | 151.75069 | 32423 ft | 489 kts | 201° |
| 2026-04-30 09:05 | -30.66774 | 151.72331 | 32428 ft | 488 kts | 201° |
| 2026-04-30 09:06 | -30.73153 | 151.69593 | 32422 ft | 488 kts | 201° |
| 2026-04-30 09:06 | -30.79530 | 151.66850 | 32425 ft | 488 kts | 201° |
| 2026-04-30 09:07 | -30.85909 | 151.64103 | 32423 ft | 488 kts | 201° |
| 2026-04-30 09:07 | -30.92254 | 151.61367 | 32422 ft | 489 kts | 201° |
| 2026-04-30 09:08 | -30.98642 | 151.58608 | 32423 ft | 489 kts | 201° |
| 2026-04-30 09:08 | -31.05021 | 151.55849 | 32425 ft | 489 kts | 201° |
| 2026-04-30 09:09 | -31.11393 | 151.53090 | 32420 ft | 489 kts | 201° |
| 2026-04-30 09:09 | -31.17774 | 151.50323 | 32423 ft | 488 kts | 201° |
| 2026-04-30 09:10 | -31.24109 | 151.47572 | 32423 ft | 489 kts | 201° |
| 2026-04-30 09:10 | -31.30479 | 151.44802 | 32423 ft | 488 kts | 201° |
| 2026-04-30 09:11 | -31.36987 | 151.42501 | 32419 ft | 490 kts | 189° |
| 2026-04-30 09:11 | -31.43797 | 151.42774 | 32421 ft | 494 kts | 169° |
| 2026-04-30 09:12 | -31.50474 | 151.44744 | 32425 ft | 494 kts | 167° |
| 2026-04-30 09:12 | -31.57151 | 151.46713 | 32427 ft | 494 kts | 167° |
| 2026-04-30 09:13 | -31.63775 | 151.48673 | 32424 ft | 494 kts | 167° |
| 2026-04-30 09:13 | -31.70448 | 151.50653 | 32429 ft | 494 kts | 167° |
| 2026-04-30 09:14 | -31.77113 | 151.52634 | 32425 ft | 494 kts | 167° |
| 2026-04-30 09:14 | -31.83777 | 151.54618 | 32433 ft | 494 kts | 167° |
| 2026-04-30 09:15 | -31.90434 | 151.56602 | 32431 ft | 494 kts | 167° |
| 2026-04-30 09:15 | -31.97065 | 151.58582 | 32432 ft | 493 kts | 167° |
| 2026-04-30 09:16 | -32.03717 | 151.60570 | 32427 ft | 493 kts | 167° |
| 2026-04-30 09:16 | -32.10383 | 151.62566 | 32425 ft | 493 kts | 167° |
| 2026-04-30 09:17 | -32.17040 | 151.64562 | 32423 ft | 493 kts | 167° |
| 2026-04-30 09:17 | -32.23686 | 151.66557 | 32422 ft | 493 kts | 167° |
| 2026-04-30 09:18 | -32.30316 | 151.68551 | 31920 ft | 488 kts | 167° |
| 2026-04-30 09:18 | -32.33578 | 151.69533 | 31207 ft | 487 kts | 166° |
| 2026-04-30 09:18 | -32.36871 | 151.70523 | 30269 ft | 487 kts | 166° |
| 2026-04-30 09:19 | -32.40163 | 151.71515 | 29047 ft | 488 kts | 166° |
| 2026-04-30 09:19 | -32.43455 | 151.72507 | 28095 ft | 486 kts | 166° |
| 2026-04-30 09:19 | -32.46712 | 151.73491 | 27386 ft | 482 kts | 166° |
| 2026-04-30 09:19 | -32.49956 | 151.74471 | 26797 ft | 478 kts | 166° |
| 2026-04-30 09:20 | -32.53167 | 151.75442 | 26293 ft | 474 kts | 166° |
| 2026-04-30 09:20 | -32.56320 | 151.76397 | 25820 ft | 471 kts | 166° |
| 2026-04-30 09:20 | -32.59481 | 151.77354 | 25336 ft | 468 kts | 165° |
| 2026-04-30 09:20 | -32.62629 | 151.78308 | 24869 ft | 465 kts | 165° |
| 2026-04-30 09:21 | -32.65757 | 151.79257 | 24542 ft | 461 kts | 165° |
| 2026-04-30 09:21 | -32.68856 | 151.80198 | 24443 ft | 460 kts | 166° |
| 2026-04-30 09:21 | -32.71970 | 151.81136 | 24428 ft | 463 kts | 165° |
| 2026-04-30 09:21 | -32.75007 | 151.82401 | 24427 ft | 462 kts | 155° |
| 2026-04-30 09:22 | -32.77764 | 151.84360 | 24428 ft | 462 kts | 143° |
| 2026-04-30 09:22 | -32.80128 | 151.86938 | 24429 ft | 462 kts | 131° |
| 2026-04-30 09:22 | -32.82007 | 151.90035 | 24426 ft | 462 kts | 120° |
| 2026-04-30 09:22 | -32.83347 | 151.93454 | 24432 ft | 462 kts | 113° |
| 2026-04-30 09:23 | -32.84558 | 151.97003 | 24426 ft | 463 kts | 112° |
| 2026-04-30 09:23 | -32.85768 | 152.00550 | 24428 ft | 463 kts | 113° |
| 2026-04-30 09:23 | -32.87000 | 152.04085 | 24426 ft | 462 kts | 113° |
| 2026-04-30 09:23 | -32.88243 | 152.07589 | 24425 ft | 457 kts | 114° |
| 2026-04-30 09:24 | -32.89482 | 152.11045 | 24423 ft | 453 kts | 114° |
| 2026-04-30 09:24 | -32.90728 | 152.14511 | 24422 ft | 455 kts | 114° |
| 2026-04-30 09:24 | -32.91974 | 152.17975 | 24419 ft | 455 kts | 114° |
| 2026-04-30 09:24 | -32.93204 | 152.21394 | 24422 ft | 455 kts | 114° |
| 2026-04-30 09:25 | -32.94448 | 152.24859 | 24422 ft | 455 kts | 114° |
| 2026-04-30 09:25 | -32.95689 | 152.28322 | 24422 ft | 455 kts | 114° |
| 2026-04-30 09:25 | -32.96929 | 152.31786 | 24424 ft | 455 kts | 114° |
| 2026-04-30 09:25 | -32.98166 | 152.35246 | 24421 ft | 455 kts | 114° |
| 2026-04-30 09:26 | -32.99407 | 152.38720 | 24422 ft | 455 kts | 114° |
| 2026-04-30 09:26 | -33.00645 | 152.42187 | 24423 ft | 455 kts | 114° |
| 2026-04-30 09:26 | -33.01883 | 152.45659 | 24420 ft | 455 kts | 114° |
| 2026-04-30 09:26 | -33.03118 | 152.49126 | 24422 ft | 454 kts | 114° |
| 2026-04-30 09:27 | -33.04351 | 152.52591 | 24427 ft | 455 kts | 114° |
| 2026-04-30 09:27 | -33.05586 | 152.56067 | 24423 ft | 454 kts | 114° |
| 2026-04-30 09:27 | -33.06816 | 152.59531 | 24424 ft | 455 kts | 114° |
| 2026-04-30 09:27 | -33.08051 | 152.63012 | 24426 ft | 455 kts | 114° |
| 2026-04-30 09:28 | -33.09280 | 152.66482 | 24429 ft | 454 kts | 114° |
| 2026-04-30 09:28 | -33.10508 | 152.69951 | 24429 ft | 454 kts | 114° |
| 2026-04-30 09:28 | -33.11733 | 152.73425 | 24429 ft | 454 kts | 113° |
| 2026-04-30 09:28 | -33.12929 | 152.76864 | 24435 ft | 454 kts | 113° |
| 2026-04-30 09:29 | -33.13959 | 152.80429 | 24433 ft | 456 kts | 103° |
| 2026-04-30 09:29 | -33.14338 | 152.84189 | 24433 ft | 458 kts | 91° |
| 2026-04-30 09:29 | -33.14065 | 152.87977 | 24437 ft | 459 kts | 80° |
| 2026-04-30 09:29 | -33.13157 | 152.91632 | 24436 ft | 462 kts | 69° |
| 2026-04-30 09:30 | -33.11627 | 152.95018 | 24435 ft | 465 kts | 56° |
| 2026-04-30 09:30 | -33.09548 | 152.97929 | 24433 ft | 458 kts | 44° |
| 2026-04-30 09:30 | -33.07052 | 153.00211 | 24435 ft | 447 kts | 32° |
| 2026-04-30 09:30 | -33.04294 | 153.01792 | 24433 ft | 435 kts | 20° |
| 2026-04-30 09:31 | -33.01410 | 153.02688 | 24436 ft | 423 kts | 12° |
| 2026-04-30 09:31 | -32.98576 | 153.03388 | 24431 ft | 409 kts | 13° |
| 2026-04-30 09:31 | -32.95814 | 153.04087 | 24435 ft | 405 kts | 13° |
| 2026-04-30 09:31 | -32.93027 | 153.04795 | 24432 ft | 414 kts | 13° |
| 2026-04-30 09:32 | -32.90198 | 153.05509 | 24432 ft | 416 kts | 13° |
| 2026-04-30 09:32 | -32.87367 | 153.06217 | 24435 ft | 414 kts | 13° |
| 2026-04-30 09:32 | -32.84585 | 153.06910 | 24433 ft | 413 kts | 13° |
| 2026-04-30 09:32 | -32.81768 | 153.07611 | 24431 ft | 414 kts | 13° |
| 2026-04-30 09:33 | -32.78942 | 153.08314 | 24432 ft | 415 kts | 13° |
| 2026-04-30 09:33 | -32.76115 | 153.09015 | 24434 ft | 415 kts | 13° |
| 2026-04-30 09:33 | -32.73291 | 153.09715 | 24432 ft | 414 kts | 13° |
| 2026-04-30 09:33 | -32.70470 | 153.10414 | 24434 ft | 415 kts | 13° |
| 2026-04-30 09:34 | -32.67636 | 153.11116 | 24429 ft | 414 kts | 13° |
| 2026-04-30 09:34 | -32.64816 | 153.11813 | 24430 ft | 414 kts | 12° |
| 2026-04-30 09:34 | -32.61945 | 153.12082 | 24433 ft | 417 kts | 356° |
| 2026-04-30 09:34 | -32.59096 | 153.11424 | 24432 ft | 418 kts | 340° |
| 2026-04-30 09:35 | -32.56509 | 153.09869 | 24431 ft | 418 kts | 323° |
| 2026-04-30 09:35 | -32.54384 | 153.07538 | 24430 ft | 416 kts | 307° |
| 2026-04-30 09:35 | -32.52895 | 153.04630 | 24429 ft | 413 kts | 290° |
| 2026-04-30 09:35 | -32.52152 | 153.01365 | 24431 ft | 411 kts | 274° |
| 2026-04-30 09:36 | -32.52201 | 152.98047 | 24428 ft | 407 kts | 258° |
| 2026-04-30 09:36 | -32.53031 | 152.94873 | 24429 ft | 403 kts | 242° |
| 2026-04-30 09:36 | -32.54525 | 152.92080 | 24428 ft | 401 kts | 229° |
| 2026-04-30 09:36 | -32.56479 | 152.89740 | 24426 ft | 398 kts | 216° |
| 2026-04-30 09:37 | -32.58797 | 152.87971 | 24425 ft | 396 kts | 204° |
| 2026-04-30 09:37 | -32.61388 | 152.86899 | 24426 ft | 394 kts | 190° |
| 2026-04-30 09:37 | -32.64091 | 152.86346 | 24426 ft | 394 kts | 188° |
| 2026-04-30 09:37 | -32.66798 | 152.85817 | 24428 ft | 394 kts | 188° |
| 2026-04-30 09:38 | -32.69501 | 152.85275 | 24427 ft | 393 kts | 188° |
| 2026-04-30 09:38 | -32.72197 | 152.84718 | 24425 ft | 393 kts | 188° |
| 2026-04-30 09:38 | -32.74888 | 152.84153 | 24427 ft | 394 kts | 188° |
| 2026-04-30 09:38 | -32.77557 | 152.83589 | 24429 ft | 394 kts | 188° |
| 2026-04-30 09:39 | -32.80249 | 152.83018 | 24428 ft | 393 kts | 188° |
| 2026-04-30 09:39 | -32.82955 | 152.82444 | 24431 ft | 394 kts | 188° |
| 2026-04-30 09:39 | -32.85653 | 152.81876 | 24428 ft | 394 kts | 188° |
| 2026-04-30 09:39 | -32.88352 | 152.81308 | 24430 ft | 394 kts | 188° |
| 2026-04-30 09:40 | -32.91045 | 152.80740 | 24431 ft | 394 kts | 188° |
| 2026-04-30 09:40 | -32.93755 | 152.80170 | 24431 ft | 394 kts | 188° |
| 2026-04-30 09:40 | -32.96455 | 152.79604 | 24429 ft | 394 kts | 188° |
| 2026-04-30 09:40 | -32.99159 | 152.79034 | 24429 ft | 394 kts | 188° |
| 2026-04-30 09:41 | -33.01856 | 152.78463 | 24432 ft | 394 kts | 188° |
| 2026-04-30 09:41 | -33.04554 | 152.77890 | 24431 ft | 393 kts | 188° |
| 2026-04-30 09:41 | -33.07250 | 152.77318 | 24433 ft | 394 kts | 188° |
| 2026-04-30 09:41 | -33.09953 | 152.76745 | 24431 ft | 394 kts | 188° |
| 2026-04-30 09:42 | -33.12614 | 152.76182 | 24432 ft | 394 kts | 188° |
| 2026-04-30 09:42 | -33.15317 | 152.75609 | 24432 ft | 394 kts | 189° |
| 2026-04-30 09:42 | -33.18013 | 152.75038 | 24434 ft | 394 kts | 188° |
| 2026-04-30 09:42 | -33.20709 | 152.74467 | 24434 ft | 394 kts | 188° |
| 2026-04-30 09:43 | -33.23414 | 152.73895 | 24437 ft | 394 kts | 188° |
| 2026-04-30 09:43 | -33.26109 | 152.73324 | 24435 ft | 393 kts | 188° |
| 2026-04-30 09:43 | -33.28814 | 152.72862 | 24433 ft | 392 kts | 181° |
| 2026-04-30 09:43 | -33.31525 | 152.73127 | 24435 ft | 392 kts | 166° |
| 2026-04-30 09:44 | -33.34079 | 152.74212 | 24434 ft | 390 kts | 152° |
| 2026-04-30 09:44 | -33.36310 | 152.76048 | 24439 ft | 391 kts | 137° |
| 2026-04-30 09:44 | -33.38081 | 152.78522 | 24438 ft | 392 kts | 123° |
| 2026-04-30 09:44 | -33.39262 | 152.81464 | 24439 ft | 394 kts | 108° |
| 2026-04-30 09:45 | -33.39768 | 152.84682 | 24440 ft | 396 kts | 94° |
| 2026-04-30 09:45 | -33.39557 | 152.87966 | 24438 ft | 398 kts | 79° |
| 2026-04-30 09:45 | -33.38629 | 152.91100 | 24442 ft | 402 kts | 64° |
| 2026-04-30 09:45 | -33.37029 | 152.93853 | 24440 ft | 406 kts | 48° |
| 2026-04-30 09:46 | -33.34853 | 152.96017 | 24441 ft | 410 kts | 32° |
| 2026-04-30 09:46 | -33.32247 | 152.97414 | 24442 ft | 413 kts | 17° |
| 2026-04-30 09:46 | -33.29418 | 152.98097 | 24441 ft | 414 kts | 11° |
| 2026-04-30 09:46 | -33.26623 | 152.98735 | 24442 ft | 414 kts | 12° |
| 2026-04-30 09:47 | -33.23790 | 152.99382 | 24441 ft | 414 kts | 12° |
| 2026-04-30 09:47 | -33.20948 | 153.00011 | 24439 ft | 414 kts | 11° |
| 2026-04-30 09:47 | -33.18109 | 153.00622 | 24438 ft | 414 kts | 11° |
| 2026-04-30 09:47 | -33.15271 | 153.01224 | 24440 ft | 414 kts | 11° |
| 2026-04-30 09:48 | -33.12437 | 153.01819 | 24441 ft | 414 kts | 11° |
| 2026-04-30 09:48 | -33.09588 | 153.02411 | 24441 ft | 414 kts | 11° |
| 2026-04-30 09:48 | -33.06747 | 153.03000 | 24443 ft | 414 kts | 11° |
| 2026-04-30 09:48 | -33.03908 | 153.03593 | 24439 ft | 414 kts | 11° |
| 2026-04-30 09:49 | -33.01061 | 153.04189 | 24438 ft | 414 kts | 11° |
| 2026-04-30 09:49 | -32.98258 | 153.04777 | 24438 ft | 415 kts | 11° |
| 2026-04-30 09:49 | -32.95420 | 153.05373 | 24437 ft | 414 kts | 11° |
| 2026-04-30 09:49 | -32.92574 | 153.05971 | 24435 ft | 414 kts | 11° |
| 2026-04-30 09:50 | -32.89736 | 153.06567 | 24437 ft | 414 kts | 11° |
| 2026-04-30 09:50 | -32.86895 | 153.07164 | 24433 ft | 414 kts | 11° |
| 2026-04-30 09:50 | -32.84053 | 153.07760 | 24432 ft | 414 kts | 11° |
| 2026-04-30 09:50 | -32.81212 | 153.08357 | 24434 ft | 414 kts | 11° |
| 2026-04-30 09:51 | -32.78374 | 153.08952 | 24434 ft | 414 kts | 11° |
| 2026-04-30 09:51 | -32.75533 | 153.09547 | 24438 ft | 414 kts | 11° |
| 2026-04-30 09:51 | -32.73650 | 153.09942 | 24436 ft | 414 kts | 11° |
| 2026-04-30 09:51 | -32.69849 | 153.10739 | 24437 ft | 415 kts | 11° |
| 2026-04-30 09:52 | -32.67964 | 153.11134 | 24433 ft | 415 kts | 11° |
| 2026-04-30 09:52 | -32.64187 | 153.11830 | 24431 ft | 416 kts | 3° |
| 2026-04-30 09:52 | -32.61308 | 153.11555 | 24429 ft | 417 kts | 347° |
| 2026-04-30 09:52 | -32.59433 | 153.10851 | 24433 ft | 417 kts | 336° |
| 2026-04-30 09:53 | -32.56967 | 153.09129 | 24434 ft | 417 kts | 320° |
| 2026-04-30 09:53 | -32.54958 | 153.06670 | 24433 ft | 416 kts | 304° |
| 2026-04-30 09:53 | -32.53580 | 153.03671 | 24430 ft | 413 kts | 288° |
| 2026-04-30 09:53 | -32.52940 | 153.00371 | 24431 ft | 410 kts | 272° |
| 2026-04-30 09:54 | -32.53082 | 152.97017 | 24431 ft | 407 kts | 256° |
| 2026-04-30 09:54 | -32.53990 | 152.93860 | 24431 ft | 403 kts | 240° |
| 2026-04-30 09:54 | -32.55575 | 152.91146 | 24431 ft | 400 kts | 225° |
| 2026-04-30 09:54 | -32.57683 | 152.89007 | 24428 ft | 397 kts | 211° |
| 2026-04-30 09:55 | -32.60150 | 152.87563 | 24427 ft | 395 kts | 197° |
| 2026-04-30 09:55 | -32.62781 | 152.86855 | 24431 ft | 393 kts | 188° |
| 2026-04-30 09:55 | -32.65490 | 152.86331 | 24427 ft | 393 kts | 188° |
| 2026-04-30 09:55 | -32.68196 | 152.85800 | 24428 ft | 394 kts | 188° |
| 2026-04-30 09:56 | -32.70904 | 152.85250 | 24429 ft | 394 kts | 188° |
| 2026-04-30 09:56 | -32.73601 | 152.84690 | 24430 ft | 394 kts | 188° |
| 2026-04-30 09:56 | -32.76313 | 152.84248 | 24429 ft | 393 kts | 180° |
| 2026-04-30 09:56 | -32.79026 | 152.84541 | 24429 ft | 392 kts | 166° |
| 2026-04-30 09:57 | -32.81542 | 152.85644 | 24434 ft | 391 kts | 151° |
| 2026-04-30 09:57 | -32.83754 | 152.87509 | 24434 ft | 391 kts | 136° |
| 2026-04-30 09:57 | -32.85483 | 152.90019 | 24630 ft | 396 kts | 122° |
| 2026-04-30 09:57 | -32.86617 | 152.93010 | 25121 ft | 401 kts | 108° |
| 2026-04-30 09:58 | -32.87096 | 152.96284 | 25355 ft | 404 kts | 93° |
| 2026-04-30 09:58 | -32.86824 | 152.99609 | 25426 ft | 407 kts | 77° |
| 2026-04-30 09:58 | -32.85803 | 153.02754 | 25439 ft | 411 kts | 62° |
| 2026-04-30 09:58 | -32.84092 | 153.05482 | 25437 ft | 414 kts | 46° |
| 2026-04-30 09:59 | -32.79135 | 153.08897 | 25440 ft | 420 kts | 15° |
| 2026-04-30 09:59 | -32.73369 | 153.10094 | 25438 ft | 421 kts | 10° |
| 2026-04-30 10:00 | -32.67625 | 153.11215 | 25436 ft | 421 kts | 11° |
| 2026-04-30 10:01 | -32.58297 | 153.10870 | 25431 ft | 423 kts | 335° |
| 2026-04-30 10:01 | -32.55795 | 153.09053 | 25432 ft | 423 kts | 319° |
| 2026-04-30 10:01 | -32.53809 | 153.06567 | 25437 ft | 421 kts | 304° |
| 2026-04-30 10:02 | -32.51783 | 153.00181 | 25431 ft | 415 kts | 272° |
| 2026-04-30 10:02 | -32.51914 | 152.96785 | 25428 ft | 411 kts | 257° |
| 2026-04-30 10:02 | -32.52803 | 152.93589 | 25434 ft | 408 kts | 241° |
| 2026-04-30 10:02 | -32.54378 | 152.90822 | 25429 ft | 405 kts | 225° |
| 2026-04-30 10:03 | -32.56514 | 152.88687 | 25427 ft | 402 kts | 210° |
| 2026-04-30 10:03 | -32.58970 | 152.87094 | 25426 ft | 402 kts | 211° |
| 2026-04-30 10:03 | -32.61142 | 152.84992 | 25429 ft | 405 kts | 226° |
| 2026-04-30 10:03 | -32.62759 | 152.82308 | 25437 ft | 408 kts | 241° |
| 2026-04-30 10:04 | -32.63750 | 152.79153 | 25430 ft | 411 kts | 256° |
| 2026-04-30 10:04 | -32.64017 | 152.75771 | 25409 ft | 413 kts | 271° |
| 2026-04-30 10:04 | -32.63549 | 152.72408 | 25196 ft | 415 kts | 286° |
| 2026-04-30 10:04 | -32.62358 | 152.69285 | 24900 ft | 416 kts | 301° |
| 2026-04-30 10:05 | -32.60525 | 152.66636 | 24511 ft | 416 kts | 317° |
| 2026-04-30 10:05 | -32.58176 | 152.64632 | 23943 ft | 419 kts | 333° |
| 2026-04-30 10:05 | -32.55409 | 152.63433 | 23562 ft | 433 kts | 348° |
| 2026-04-30 10:05 | -32.52373 | 152.63084 | 23446 ft | 455 kts | 2° |
| 2026-04-30 10:06 | -32.49183 | 152.63554 | 23427 ft | 468 kts | 14° |
| 2026-04-30 10:06 | -32.46074 | 152.64822 | 23427 ft | 465 kts | 26° |
| 2026-04-30 10:06 | -32.43352 | 152.66752 | 23429 ft | 461 kts | 38° |
| 2026-04-30 10:06 | -32.40875 | 152.69166 | 23429 ft | 461 kts | 41° |
| 2026-04-30 10:07 | -32.38305 | 152.71459 | 23428 ft | 463 kts | 35° |
| 2026-04-30 10:07 | -32.35538 | 152.73442 | 23429 ft | 464 kts | 30° |
| 2026-04-30 10:07 | -32.33639 | 152.74605 | 23429 ft | 464 kts | 27° |
| 2026-04-30 10:07 | -32.30671 | 152.76123 | 23433 ft | 466 kts | 19° |
| 2026-04-30 10:08 | -32.27499 | 152.76945 | 23426 ft | 468 kts | 7° |
| 2026-04-30 10:08 | -32.24245 | 152.76980 | 23422 ft | 469 kts | 355° |
| 2026-04-30 10:08 | -32.21054 | 152.76229 | 23421 ft | 469 kts | 342° |
| 2026-04-30 10:08 | -32.18057 | 152.74720 | 23426 ft | 470 kts | 330° |
| 2026-04-30 10:09 | -32.15356 | 152.72534 | 23694 ft | 473 kts | 321° |
| 2026-04-30 10:09 | -32.12775 | 152.70104 | 24380 ft | 474 kts | 321° |
| 2026-04-30 10:09 | -32.10153 | 152.67725 | 25015 ft | 477 kts | 323° |
| 2026-04-30 10:09 | -32.07486 | 152.65457 | 25314 ft | 479 kts | 324° |
| 2026-04-30 10:10 | -32.04734 | 152.63232 | 25412 ft | 479 kts | 325° |
| 2026-04-30 10:10 | -32.01958 | 152.61048 | 25427 ft | 479 kts | 326° |
| 2026-04-30 10:10 | -31.99175 | 152.58883 | 25426 ft | 478 kts | 326° |
| 2026-04-30 10:10 | -31.96398 | 152.56730 | 25424 ft | 478 kts | 326° |
| 2026-04-30 10:11 | -31.93625 | 152.54579 | 25427 ft | 477 kts | 326° |
| 2026-04-30 10:11 | -31.90975 | 152.52245 | 25426 ft | 476 kts | 318° |
| 2026-04-30 10:11 | -31.88657 | 152.49462 | 25429 ft | 476 kts | 309° |
| 2026-04-30 10:11 | -31.86730 | 152.46302 | 25427 ft | 475 kts | 300° |
| 2026-04-30 10:12 | -31.85117 | 152.42910 | 25426 ft | 475 kts | 298° |
| 2026-04-30 10:12 | -31.83514 | 152.39510 | 25426 ft | 475 kts | 298° |
| 2026-04-30 10:12 | -31.81904 | 152.36116 | 25428 ft | 474 kts | 298° |
| 2026-04-30 10:12 | -31.80292 | 152.32728 | 25428 ft | 475 kts | 298° |
| 2026-04-30 10:13 | -31.78674 | 152.29333 | 25429 ft | 475 kts | 298° |
| 2026-04-30 10:13 | -31.77093 | 152.25992 | 25430 ft | 475 kts | 297° |
| 2026-04-30 10:13 | -31.75493 | 152.22594 | 25429 ft | 475 kts | 297° |
| 2026-04-30 10:13 | -31.73886 | 152.19196 | 25432 ft | 475 kts | 298° |
| 2026-04-30 10:14 | -31.72277 | 152.15811 | 25436 ft | 475 kts | 298° |
| 2026-04-30 10:14 | -31.70658 | 152.12420 | 25441 ft | 475 kts | 298° |
| 2026-04-30 10:14 | -31.67427 | 152.05687 | 25435 ft | 475 kts | 298° |
| 2026-04-30 10:15 | -31.65789 | 152.02281 | 25444 ft | 475 kts | 298° |
| 2026-04-30 10:15 | -31.64162 | 151.98900 | 25439 ft | 475 kts | 298° |
| 2026-04-30 10:15 | -31.62535 | 151.95524 | 25438 ft | 475 kts | 298° |
| 2026-04-30 10:15 | -31.60910 | 151.92151 | 25437 ft | 476 kts | 298° |
| 2026-04-30 10:16 | -31.59282 | 151.88776 | 25443 ft | 476 kts | 298° |
| 2026-04-30 10:16 | -31.57653 | 151.85403 | 25446 ft | 475 kts | 298° |
| 2026-04-30 10:16 | -31.56042 | 151.82072 | 25447 ft | 475 kts | 298° |
| 2026-04-30 10:17 | -31.52778 | 151.75331 | 25450 ft | 476 kts | 298° |
| 2026-04-30 10:17 | -31.49511 | 151.68591 | 25445 ft | 476 kts | 298° |
| 2026-04-30 10:17 | -31.47873 | 151.65214 | 25447 ft | 476 kts | 298° |
| 2026-04-30 10:18 | -31.46233 | 151.61836 | 25442 ft | 476 kts | 298° |
| 2026-04-30 10:18 | -31.44596 | 151.58466 | 25442 ft | 477 kts | 298° |
| 2026-04-30 10:18 | -31.42955 | 151.55091 | 25443 ft | 477 kts | 298° |
| 2026-04-30 10:19 | -31.39672 | 151.48349 | 25438 ft | 477 kts | 298° |
| 2026-04-30 10:19 | -31.38030 | 151.44981 | 25433 ft | 477 kts | 298° |
| 2026-04-30 10:19 | -31.36380 | 151.41600 | 25430 ft | 477 kts | 298° |
| 2026-04-30 10:19 | -31.34755 | 151.38271 | 25427 ft | 477 kts | 298° |
| 2026-04-30 10:20 | -31.33108 | 151.34903 | 25427 ft | 477 kts | 298° |
| 2026-04-30 10:20 | -31.29809 | 151.28163 | 25420 ft | 477 kts | 298° |
| 2026-04-30 10:20 | -31.28167 | 151.24812 | 25424 ft | 478 kts | 299° |
| 2026-04-30 10:21 | -31.26514 | 151.21441 | 25417 ft | 477 kts | 298° |
| 2026-04-30 10:21 | -31.24853 | 151.18055 | 25407 ft | 477 kts | 299° |
| 2026-04-30 10:21 | -31.23200 | 151.14690 | 25401 ft | 477 kts | 299° |
| 2026-04-30 10:21 | -31.21549 | 151.11329 | 25400 ft | 477 kts | 299° |
| 2026-04-30 10:22 | -31.19897 | 151.07971 | 25395 ft | 477 kts | 299° |
| 2026-04-30 10:22 | -31.18246 | 151.04619 | 25399 ft | 477 kts | 299° |
| 2026-04-30 10:22 | -31.16591 | 151.01261 | 25398 ft | 477 kts | 299° |
| 2026-04-30 10:22 | -31.14936 | 150.97907 | 25395 ft | 476 kts | 299° |
| 2026-04-30 10:23 | -31.13279 | 150.94551 | 25401 ft | 477 kts | 299° |
| 2026-04-30 10:23 | -31.11621 | 150.91197 | 25398 ft | 477 kts | 299° |
| 2026-04-30 10:23 | -31.09961 | 150.87841 | 25404 ft | 477 kts | 299° |
| 2026-04-30 10:23 | -31.08326 | 150.84539 | 25403 ft | 476 kts | 300° |
| 2026-04-30 10:24 | -31.06393 | 150.81398 | 25405 ft | 478 kts | 310° |
| 2026-04-30 10:24 | -31.04180 | 150.78430 | 25397 ft | 479 kts | 310° |
| 2026-04-30 10:24 | -31.01999 | 150.75503 | 25405 ft | 478 kts | 310° |
| 2026-04-30 10:24 | -30.99843 | 150.72616 | 25401 ft | 479 kts | 310° |
| 2026-04-30 10:25 | -30.97659 | 150.69688 | 25395 ft | 479 kts | 310° |
| 2026-04-30 10:25 | -30.95474 | 150.66759 | 25385 ft | 479 kts | 310° |
| 2026-04-30 10:25 | -30.93284 | 150.63829 | 25383 ft | 479 kts | 310° |
| 2026-04-30 10:25 | -30.91091 | 150.60898 | 25375 ft | 479 kts | 310° |
| 2026-04-30 10:26 | -30.88908 | 150.57961 | 25365 ft | 479 kts | 308° |
| 2026-04-30 10:26 | -30.86759 | 150.55000 | 25365 ft | 479 kts | 308° |
| 2026-04-30 10:26 | -30.84601 | 150.52042 | 25360 ft | 480 kts | 309° |
| 2026-04-30 10:26 | -30.82420 | 150.49090 | 25363 ft | 480 kts | 309° |
| 2026-04-30 10:27 | -30.80315 | 150.46092 | 25366 ft | 477 kts | 302° |
| 2026-04-30 10:27 | -30.78781 | 150.42728 | 25353 ft | 463 kts | 289° |
| 2026-04-30 10:27 | -30.77984 | 150.39183 | 25350 ft | 446 kts | 275° |
| 2026-04-30 10:27 | -30.77942 | 150.35689 | 25349 ft | 430 kts | 261° |
| 2026-04-30 10:28 | -30.78653 | 150.32388 | 25349 ft | 414 kts | 245° |
| 2026-04-30 10:28 | -30.80065 | 150.29555 | 25350 ft | 400 kts | 228° |
| 2026-04-30 10:28 | -30.82099 | 150.27363 | 25345 ft | 402 kts | 211° |
| 2026-04-30 10:28 | -30.84612 | 150.25949 | 25347 ft | 403 kts | 195° |
| 2026-04-30 10:29 | -30.87368 | 150.25437 | 25349 ft | 401 kts | 179° |
| 2026-04-30 10:29 | -30.90117 | 150.25871 | 25350 ft | 400 kts | 162° |
| 2026-04-30 10:29 | -30.92640 | 150.27215 | 25353 ft | 400 kts | 146° |
| 2026-04-30 10:29 | -30.94731 | 150.29360 | 25349 ft | 402 kts | 129° |
| 2026-04-30 10:30 | -30.96201 | 150.32121 | 25355 ft | 403 kts | 112° |
| 2026-04-30 10:30 | -30.96912 | 150.35279 | 25357 ft | 406 kts | 97° |
| 2026-04-30 10:30 | -30.97391 | 150.38520 | 25354 ft | 405 kts | 107° |
| 2026-04-30 10:30 | -30.98491 | 150.41528 | 25358 ft | 403 kts | 121° |
| 2026-04-30 10:31 | -31.00011 | 150.44275 | 25354 ft | 403 kts | 122° |
| 2026-04-30 10:31 | -31.01346 | 150.47104 | 25365 ft | 404 kts | 115° |
| 2026-04-30 10:31 | -31.02358 | 150.50159 | 25373 ft | 404 kts | 108° |
| 2026-04-30 10:31 | -31.03104 | 150.53324 | 25377 ft | 405 kts | 104° |
| 2026-04-30 10:32 | -31.03704 | 150.56535 | 25378 ft | 406 kts | 102° |
| 2026-04-30 10:32 | -31.04245 | 150.59774 | 25386 ft | 406 kts | 101° |
| 2026-04-30 10:32 | -31.04767 | 150.63006 | 25385 ft | 406 kts | 101° |
| 2026-04-30 10:32 | -31.05291 | 150.66236 | 25392 ft | 406 kts | 101° |
| 2026-04-30 10:33 | -31.05821 | 150.69474 | 25396 ft | 406 kts | 101° |
| 2026-04-30 10:33 | -31.06355 | 150.72706 | 25399 ft | 406 kts | 102° |
| 2026-04-30 10:33 | -31.06893 | 150.75946 | 25403 ft | 406 kts | 102° |
| 2026-04-30 10:33 | -31.07431 | 150.79180 | 25397 ft | 406 kts | 102° |
| 2026-04-30 10:34 | -31.07971 | 150.82419 | 25403 ft | 406 kts | 102° |
| 2026-04-30 10:34 | -31.08469 | 150.85659 | 25403 ft | 407 kts | 95° |
| 2026-04-30 10:34 | -31.08384 | 150.88961 | 25405 ft | 410 kts | 79° |
| 2026-04-30 10:34 | -31.07559 | 150.92146 | 25399 ft | 413 kts | 65° |
| 2026-04-30 10:35 | -31.06047 | 150.94998 | 25401 ft | 415 kts | 50° |
| 2026-04-30 10:35 | -31.03975 | 150.97274 | 25400 ft | 417 kts | 34° |
| 2026-04-30 10:35 | -31.01416 | 150.98866 | 25400 ft | 419 kts | 19° |
| 2026-04-30 10:35 | -30.98566 | 150.99607 | 25398 ft | 421 kts | 3° |
| 2026-04-30 10:36 | -30.95649 | 150.99427 | 25398 ft | 422 kts | 347° |
| 2026-04-30 10:36 | -30.92868 | 150.98332 | 25397 ft | 422 kts | 331° |
| 2026-04-30 10:36 | -30.90450 | 150.96411 | 25392 ft | 421 kts | 315° |
| 2026-04-30 10:36 | -30.88578 | 150.93826 | 25393 ft | 419 kts | 299° |
| 2026-04-30 10:37 | -30.87366 | 150.90752 | 25391 ft | 416 kts | 284° |
| 2026-04-30 10:37 | -30.86763 | 150.87455 | 25392 ft | 415 kts | 278° |
| 2026-04-30 10:37 | -30.86246 | 150.84195 | 25391 ft | 414 kts | 278° |
| 2026-04-30 10:37 | -30.85712 | 150.80902 | 25391 ft | 414 kts | 278° |
| 2026-04-30 10:38 | -30.85163 | 150.77606 | 25391 ft | 415 kts | 279° |
| 2026-04-30 10:38 | -30.84606 | 150.74314 | 25384 ft | 414 kts | 279° |
| 2026-04-30 10:38 | -30.84045 | 150.71020 | 25380 ft | 415 kts | 279° |
| 2026-04-30 10:38 | -30.83495 | 150.67725 | 25382 ft | 414 kts | 278° |
| 2026-04-30 10:39 | -30.82949 | 150.64426 | 25378 ft | 415 kts | 278° |
| 2026-04-30 10:39 | -30.82398 | 150.61129 | 25373 ft | 415 kts | 279° |
| 2026-04-30 10:39 | -30.81842 | 150.57831 | 25365 ft | 415 kts | 279° |
| 2026-04-30 10:39 | -30.81283 | 150.54539 | 25359 ft | 414 kts | 279° |
| 2026-04-30 10:40 | -30.80727 | 150.51244 | 25365 ft | 415 kts | 278° |
| 2026-04-30 10:40 | -30.80553 | 150.47955 | 25364 ft | 412 kts | 263° |
| 2026-04-30 10:40 | -30.81119 | 150.44708 | 25359 ft | 407 kts | 248° |
| 2026-04-30 10:40 | -30.82363 | 150.41804 | 25363 ft | 401 kts | 233° |
| 2026-04-30 10:41 | -30.84205 | 150.39364 | 25353 ft | 400 kts | 218° |
| 2026-04-30 10:41 | -30.86483 | 150.37578 | 25356 ft | 395 kts | 204° |
| 2026-04-30 10:41 | -30.89092 | 150.36507 | 25358 ft | 401 kts | 190° |
| 2026-04-30 10:41 | -30.91878 | 150.36240 | 25355 ft | 401 kts | 175° |
| 2026-04-30 10:42 | -30.94592 | 150.36800 | 25359 ft | 394 kts | 161° |
| 2026-04-30 10:42 | -30.97089 | 150.38132 | 25356 ft | 399 kts | 147° |
| 2026-04-30 10:42 | -30.99245 | 150.40179 | 25356 ft | 402 kts | 133° |
| 2026-04-30 10:42 | -31.00872 | 150.42779 | 25360 ft | 403 kts | 118° |
| 2026-04-30 10:43 | -31.01894 | 150.45817 | 25366 ft | 405 kts | 104° |
| 2026-04-30 10:43 | -31.02454 | 150.49038 | 25371 ft | 405 kts | 102° |
| 2026-04-30 10:43 | -31.02995 | 150.52257 | 25373 ft | 401 kts | 102° |
| 2026-04-30 10:43 | -31.03528 | 150.55447 | 25381 ft | 401 kts | 102° |
| 2026-04-30 10:44 | -31.04062 | 150.58667 | 25385 ft | 407 kts | 102° |
| 2026-04-30 10:44 | -31.04599 | 150.61913 | 25389 ft | 406 kts | 102° |
| 2026-04-30 10:44 | -31.05244 | 150.65104 | 25391 ft | 404 kts | 111° |
| 2026-04-30 10:44 | -31.06527 | 150.68003 | 25399 ft | 403 kts | 127° |
| 2026-04-30 10:45 | -31.08456 | 150.70371 | 25635 ft | 405 kts | 143° |
| 2026-04-30 10:45 | -31.10890 | 150.72022 | 26222 ft | 405 kts | 159° |
| 2026-04-30 10:45 | -31.13616 | 150.72869 | 26776 ft | 408 kts | 173° |
| 2026-04-30 10:45 | -31.16468 | 150.72872 | 27218 ft | 413 kts | 187° |
| 2026-04-30 10:46 | -31.19254 | 150.72051 | 27366 ft | 414 kts | 202° |
| 2026-04-30 10:46 | -31.21743 | 150.70469 | 27395 ft | 414 kts | 216° |
| 2026-04-30 10:46 | -31.23819 | 150.68186 | 27390 ft | 408 kts | 231° |
| 2026-04-30 10:46 | -31.25303 | 150.65344 | 27389 ft | 414 kts | 246° |
| 2026-04-30 10:47 | -31.26117 | 150.62089 | 27388 ft | 420 kts | 260° |
| 2026-04-30 10:47 | -31.26205 | 150.58618 | 27386 ft | 438 kts | 274° |
| 2026-04-30 10:47 | -31.25580 | 150.55055 | 27382 ft | 458 kts | 287° |
| 2026-04-30 10:47 | -31.24274 | 150.51577 | 27375 ft | 478 kts | 298° |
| 2026-04-30 10:48 | -31.22325 | 150.48356 | 27374 ft | 491 kts | 310° |
| 2026-04-30 10:48 | -31.19846 | 150.45599 | 27368 ft | 492 kts | 321° |
| 2026-04-30 10:48 | -31.16959 | 150.43445 | 27368 ft | 493 kts | 333° |
| 2026-04-30 10:48 | -31.13765 | 150.41985 | 27369 ft | 494 kts | 342° |
| 2026-04-30 10:49 | -31.10467 | 150.40828 | 27368 ft | 495 kts | 343° |
| 2026-04-30 10:49 | -31.07169 | 150.39682 | 27363 ft | 494 kts | 343° |
| 2026-04-30 10:49 | -31.03875 | 150.38536 | 27361 ft | 494 kts | 342° |
| 2026-04-30 10:49 | -31.00580 | 150.37383 | 27361 ft | 494 kts | 342° |
| 2026-04-30 10:50 | -30.97332 | 150.36243 | 27359 ft | 494 kts | 342° |
| 2026-04-30 10:50 | -30.94039 | 150.35087 | 27360 ft | 494 kts | 342° |
| 2026-04-30 10:50 | -30.90731 | 150.33926 | 27356 ft | 494 kts | 342° |
| 2026-04-30 10:50 | -30.87437 | 150.32770 | 27354 ft | 494 kts | 342° |
| 2026-04-30 10:51 | -30.84142 | 150.31615 | 27357 ft | 494 kts | 342° |
| 2026-04-30 10:51 | -30.80842 | 150.30459 | 27419 ft | 495 kts | 342° |
| 2026-04-30 10:51 | -30.77553 | 150.29308 | 28134 ft | 490 kts | 342° |
| 2026-04-30 10:51 | -30.75410 | 150.28559 | 29049 ft | 479 kts | 342° |
| 2026-04-30 10:52 | -30.71202 | 150.27090 | 30499 ft | 471 kts | 342° |
| 2026-04-30 10:52 | -30.68076 | 150.25997 | 30825 ft | 478 kts | 342° |
| 2026-04-30 10:52 | -30.64873 | 150.24877 | 31307 ft | 481 kts | 342° |
| 2026-04-30 10:52 | -30.61661 | 150.23755 | 31775 ft | 484 kts | 342° |
| 2026-04-30 10:53 | -30.58426 | 150.22627 | 32168 ft | 487 kts | 341° |
| 2026-04-30 10:53 | -30.56232 | 150.21860 | 32417 ft | 488 kts | 341° |
| 2026-04-30 10:53 | -30.52979 | 150.20722 | 32887 ft | 488 kts | 342° |
| 2026-04-30 10:53 | -30.48668 | 150.19237 | 33293 ft | 486 kts | 342° |
| 2026-04-30 10:54 | -30.43285 | 150.17388 | 33353 ft | 484 kts | 342° |
| 2026-04-30 10:54 | -30.36781 | 150.15153 | 33345 ft | 493 kts | 348° |
| 2026-04-30 10:55 | -30.30069 | 150.13244 | 33350 ft | 499 kts | 348° |
| 2026-04-30 10:55 | -30.23347 | 150.11084 | 33352 ft | 502 kts | 346° |
| 2026-04-30 10:56 | -30.16659 | 150.08741 | 33343 ft | 503 kts | 345° |
| 2026-04-30 10:56 | -30.10012 | 150.06376 | 33340 ft | 503 kts | 344° |
| 2026-04-30 10:57 | -30.03311 | 150.04003 | 33342 ft | 503 kts | 344° |
| 2026-04-30 10:57 | -29.96599 | 150.01639 | 33340 ft | 504 kts | 343° |
| 2026-04-30 10:58 | -29.89878 | 149.99282 | 33333 ft | 504 kts | 343° |
| 2026-04-30 10:58 | -29.83164 | 149.96932 | 33330 ft | 504 kts | 343° |
| 2026-04-30 10:59 | -29.76448 | 149.94590 | 33329 ft | 505 kts | 342° |
| 2026-04-30 10:59 | -29.69753 | 149.92268 | 33326 ft | 505 kts | 342° |
| 2026-04-30 11:00 | -29.63020 | 149.89938 | 33321 ft | 505 kts | 342° |
| 2026-04-30 11:00 | -29.56280 | 149.87613 | 33319 ft | 505 kts | 342° |
| 2026-04-30 11:01 | -29.49760 | 149.84711 | 33320 ft | 501 kts | 330° |
| 2026-04-30 11:01 | -29.44012 | 149.80377 | 33335 ft | 496 kts | 320° |
| 2026-04-30 11:02 | -29.38557 | 149.75526 | 33314 ft | 496 kts | 320° |
| 2026-04-30 11:02 | -29.33083 | 149.70699 | 33316 ft | 496 kts | 320° |
| 2026-04-30 11:03 | -29.27617 | 149.65891 | 33311 ft | 495 kts | 320° |
| 2026-04-30 11:04 | -29.19400 | 149.58676 | 33325 ft | 495 kts | 320° |
| 2026-04-30 11:04 | -29.13927 | 149.53883 | 33324 ft | 495 kts | 320° |
| 2026-04-30 11:05 | -29.08479 | 149.49074 | 33321 ft | 494 kts | 319° |
| 2026-04-30 11:05 | -29.03076 | 149.44299 | 33317 ft | 494 kts | 319° |
| 2026-04-30 11:06 | -28.97598 | 149.39555 | 33314 ft | 494 kts | 321° |
| 2026-04-30 11:06 | -28.92082 | 149.34854 | 33308 ft | 494 kts | 320° |
| 2026-04-30 11:07 | -28.86606 | 149.30117 | 33307 ft | 493 kts | 320° |
| 2026-04-30 11:07 | -28.81142 | 149.25372 | 33309 ft | 493 kts | 320° |
| 2026-04-30 11:08 | -28.75724 | 149.20673 | 33306 ft | 493 kts | 320° |
| 2026-04-30 11:08 | -28.70264 | 149.15946 | 33305 ft | 493 kts | 320° |
| 2026-04-30 11:09 | -28.64810 | 149.11231 | 33301 ft | 492 kts | 320° |
| 2026-04-30 11:09 | -28.59344 | 149.06514 | 33302 ft | 492 kts | 320° |
| 2026-04-30 11:10 | -28.53876 | 149.01802 | 33300 ft | 492 kts | 320° |
| 2026-04-30 11:10 | -28.48414 | 148.97102 | 33292 ft | 492 kts | 320° |
| 2026-04-30 11:11 | -28.42976 | 148.92429 | 33297 ft | 492 kts | 320° |
| 2026-04-30 11:11 | -28.37509 | 148.87739 | 33291 ft | 492 kts | 320° |
| 2026-04-30 11:12 | -28.32039 | 148.83051 | 33293 ft | 492 kts | 320° |
| 2026-04-30 11:12 | -28.26569 | 148.78371 | 33290 ft | 492 kts | 320° |
| 2026-04-30 11:13 | -28.21105 | 148.73703 | 33288 ft | 491 kts | 320° |
| 2026-04-30 11:13 | -28.15676 | 148.69072 | 33289 ft | 491 kts | 320° |
| 2026-04-30 11:14 | -28.10225 | 148.64427 | 33284 ft | 490 kts | 320° |
| 2026-04-30 11:14 | -28.04769 | 148.59782 | 33282 ft | 490 kts | 320° |
| 2026-04-30 11:15 | -28.00185 | 148.54230 | 33278 ft | 481 kts | 300° |
| 2026-04-30 11:15 | -27.96844 | 148.47690 | 33278 ft | 480 kts | 297° |
| 2026-04-30 11:16 | -27.93504 | 148.41154 | 33283 ft | 480 kts | 297° |
| 2026-04-30 11:16 | -27.90174 | 148.34620 | 33277 ft | 479 kts | 296° |
| 2026-04-30 11:17 | -27.86878 | 148.28069 | 33279 ft | 479 kts | 297° |
| 2026-04-30 11:17 | -27.83565 | 148.21598 | 33280 ft | 479 kts | 297° |
| 2026-04-30 11:18 | -27.80216 | 148.15099 | 33283 ft | 479 kts | 297° |
| 2026-04-30 11:18 | -27.75276 | 148.05427 | 33145 ft | 457 kts | 293° |
| 2026-04-30 11:19 | -27.74198 | 148.02121 | 33026 ft | 443 kts | 281° |
| 2026-04-30 11:19 | -27.73809 | 147.98722 | 32847 ft | 433 kts | 269° |
| 2026-04-30 11:19 | -27.74097 | 147.95354 | 32433 ft | 430 kts | 256° |
| 2026-04-30 11:19 | -27.75058 | 147.92173 | 32001 ft | 429 kts | 244° |
| 2026-04-30 11:20 | -27.76652 | 147.89323 | 31596 ft | 429 kts | 231° |
| 2026-04-30 11:20 | -27.78783 | 147.86970 | 31218 ft | 429 kts | 218° |
| 2026-04-30 11:20 | -27.81337 | 147.85236 | 30852 ft | 430 kts | 205° |
| 2026-04-30 11:20 | -27.84192 | 147.84209 | 30495 ft | 432 kts | 192° |
| 2026-04-30 11:21 | -27.87188 | 147.83957 | 30108 ft | 434 kts | 179° |
| 2026-04-30 11:21 | -27.90132 | 147.84492 | 29726 ft | 436 kts | 166° |
| 2026-04-30 11:21 | -27.92935 | 147.85807 | 29350 ft | 437 kts | 152° |
| 2026-04-30 11:21 | -27.95390 | 147.87830 | 28994 ft | 439 kts | 139° |
| 2026-04-30 11:22 | -27.97364 | 147.90461 | 28637 ft | 440 kts | 124° |
| 2026-04-30 11:22 | -27.98737 | 147.93553 | 28275 ft | 440 kts | 110° |
| 2026-04-30 11:22 | -27.99418 | 147.96923 | 27928 ft | 440 kts | 96° |
| 2026-04-30 11:22 | -27.99407 | 148.00388 | 27569 ft | 438 kts | 88° |
| 2026-04-30 11:23 | -27.99597 | 148.03798 | 27327 ft | 431 kts | 103° |
| 2026-04-30 11:23 | -28.00495 | 148.06966 | 27282 ft | 427 kts | 117° |
| 2026-04-30 11:23 | -28.03392 | 148.12865 | 27278 ft | 432 kts | 114° |
| 2026-04-30 11:24 | -28.04256 | 148.16118 | 27283 ft | 433 kts | 103° |
| 2026-04-30 11:24 | -28.04663 | 148.19499 | 27283 ft | 434 kts | 96° |
| 2026-04-30 11:24 | -28.04801 | 148.22922 | 27282 ft | 435 kts | 92° |
| 2026-04-30 11:25 | -28.04793 | 148.29780 | 27281 ft | 436 kts | 91° |
| 2026-04-30 11:25 | -28.04767 | 148.33215 | 27282 ft | 435 kts | 91° |
| 2026-04-30 11:25 | -28.04735 | 148.40034 | 27283 ft | 435 kts | 91° |
| 2026-04-30 11:26 | -28.04722 | 148.46892 | 27283 ft | 435 kts | 91° |
| 2026-04-30 11:26 | -28.04718 | 148.50319 | 27283 ft | 435 kts | 91° |
| 2026-04-30 11:26 | -28.04715 | 148.53748 | 27283 ft | 435 kts | 91° |
| 2026-04-30 11:27 | -28.04713 | 148.57176 | 27289 ft | 435 kts | 91° |
| 2026-04-30 11:27 | -28.04688 | 148.60594 | 27285 ft | 435 kts | 87° |
| 2026-04-30 11:27 | -28.04149 | 148.63973 | 27288 ft | 437 kts | 72° |
| 2026-04-30 11:27 | -28.02905 | 148.67113 | 27287 ft | 438 kts | 58° |
| 2026-04-30 11:28 | -27.98635 | 148.71956 | 27289 ft | 438 kts | 30° |
| 2026-04-30 11:28 | -27.95870 | 148.73365 | 27292 ft | 436 kts | 15° |
| 2026-04-30 11:28 | -27.92903 | 148.73977 | 27290 ft | 433 kts | 1° |
| 2026-04-30 11:29 | -27.89912 | 148.73760 | 27290 ft | 430 kts | 346° |
| 2026-04-30 11:29 | -27.87080 | 148.72734 | 27290 ft | 426 kts | 332° |
| 2026-04-30 11:29 | -27.82559 | 148.68591 | 27288 ft | 419 kts | 304° |
| 2026-04-30 11:30 | -27.80184 | 148.62722 | 27288 ft | 413 kts | 279° |
| 2026-04-30 11:30 | -27.79912 | 148.59499 | 27285 ft | 411 kts | 268° |
| 2026-04-30 11:30 | -27.79948 | 148.56266 | 27286 ft | 411 kts | 268° |
| 2026-04-30 11:31 | -27.79981 | 148.53033 | 27285 ft | 411 kts | 268° |
| 2026-04-30 11:31 | -27.79996 | 148.49806 | 27285 ft | 411 kts | 268° |
| 2026-04-30 11:31 | -27.79997 | 148.46579 | 27282 ft | 411 kts | 269° |
| 2026-04-30 11:31 | -27.79938 | 148.43345 | 27277 ft | 414 kts | 275° |
| 2026-04-30 11:32 | -27.79294 | 148.40091 | 27284 ft | 435 kts | 288° |
| 2026-04-30 11:32 | -27.77959 | 148.36936 | 27284 ft | 456 kts | 300° |
| 2026-04-30 11:32 | -27.76003 | 148.34018 | 27284 ft | 476 kts | 309° |
| 2026-04-30 11:33 | -27.71549 | 148.28341 | 27278 ft | 483 kts | 309° |
| 2026-04-30 11:33 | -27.69349 | 148.25540 | 27277 ft | 482 kts | 309° |
| 2026-04-30 11:33 | -27.67121 | 148.22704 | 27279 ft | 483 kts | 309° |
| 2026-04-30 11:33 | -27.64896 | 148.19869 | 27279 ft | 483 kts | 309° |
| 2026-04-30 11:34 | -27.62673 | 148.17034 | 27275 ft | 482 kts | 309° |
| 2026-04-30 11:34 | -27.60520 | 148.14139 | 27274 ft | 481 kts | 305° |
| 2026-04-30 11:34 | -27.58629 | 148.11025 | 27277 ft | 480 kts | 300° |
| 2026-04-30 11:34 | -27.56887 | 148.07820 | 27277 ft | 480 kts | 300° |
| 2026-04-30 11:35 | -27.55142 | 148.04613 | 27273 ft | 480 kts | 299° |
| 2026-04-30 11:35 | -27.53388 | 148.01414 | 27274 ft | 480 kts | 299° |
| 2026-04-30 11:35 | -27.51636 | 147.98216 | 27272 ft | 479 kts | 299° |
| 2026-04-30 11:35 | -27.49887 | 147.95021 | 27275 ft | 479 kts | 299° |
| 2026-04-30 11:36 | -27.48138 | 147.91821 | 27276 ft | 479 kts | 299° |
| 2026-04-30 11:36 | -27.46392 | 147.88622 | 27275 ft | 479 kts | 299° |
| 2026-04-30 11:36 | -27.44650 | 147.85425 | 27276 ft | 479 kts | 299° |
| 2026-04-30 11:36 | -27.42911 | 147.82233 | 27274 ft | 479 kts | 299° |
| 2026-04-30 11:37 | -27.41169 | 147.79035 | 27271 ft | 478 kts | 299° |
| 2026-04-30 11:37 | -27.39433 | 147.75842 | 27273 ft | 478 kts | 299° |
| 2026-04-30 11:37 | -27.38283 | 147.73724 | 27274 ft | 478 kts | 299° |
| 2026-04-30 11:37 | -27.36550 | 147.70529 | 27274 ft | 478 kts | 299° |
| 2026-04-30 11:38 | -27.34818 | 147.67334 | 27270 ft | 478 kts | 299° |
| 2026-04-30 11:38 | -27.33090 | 147.64140 | 27271 ft | 478 kts | 299° |
| 2026-04-30 11:38 | -27.31359 | 147.60941 | 27270 ft | 478 kts | 299° |
| 2026-04-30 11:38 | -27.29075 | 147.56714 | 27271 ft | 478 kts | 299° |
| 2026-04-30 11:39 | -27.27908 | 147.54550 | 27271 ft | 477 kts | 299° |
| 2026-04-30 11:39 | -27.26187 | 147.51357 | 27268 ft | 477 kts | 299° |
| 2026-04-30 11:39 | -27.24491 | 147.48211 | 27268 ft | 477 kts | 299° |
| 2026-04-30 11:39 | -27.22772 | 147.45022 | 27263 ft | 477 kts | 299° |
| 2026-04-30 11:40 | -27.21055 | 147.41838 | 27266 ft | 477 kts | 299° |
| 2026-04-30 11:40 | -27.19337 | 147.38649 | 27264 ft | 476 kts | 299° |
| 2026-04-30 11:40 | -27.17624 | 147.35470 | 27265 ft | 476 kts | 299° |
| 2026-04-30 11:40 | -27.15911 | 147.32293 | 27267 ft | 475 kts | 298° |
| 2026-04-30 11:41 | -27.14477 | 147.28974 | 27265 ft | 467 kts | 288° |
| 2026-04-30 11:41 | -27.13642 | 147.25518 | 27266 ft | 451 kts | 277° |
| 2026-04-30 11:41 | -27.13433 | 147.22068 | 27263 ft | 435 kts | 266° |
| 2026-04-30 11:41 | -27.13802 | 147.18767 | 27264 ft | 420 kts | 256° |
| 2026-04-30 11:42 | -27.14679 | 147.15696 | 27262 ft | 407 kts | 246° |
| 2026-04-30 11:42 | -27.15987 | 147.12935 | 27262 ft | 396 kts | 237° |
| 2026-04-30 11:42 | -27.17685 | 147.10491 | 27263 ft | 400 kts | 227° |
| 2026-04-30 11:42 | -27.19768 | 147.08380 | 27263 ft | 405 kts | 218° |
| 2026-04-30 11:43 | -27.22162 | 147.06705 | 27264 ft | 406 kts | 208° |
| 2026-04-30 11:43 | -27.24787 | 147.05528 | 27266 ft | 407 kts | 198° |
| 2026-04-30 11:43 | -27.27574 | 147.04889 | 27268 ft | 411 kts | 188° |
| 2026-04-30 11:43 | -27.30436 | 147.04817 | 27268 ft | 415 kts | 178° |
| 2026-04-30 11:44 | -27.33261 | 147.05322 | 27266 ft | 418 kts | 168° |
| 2026-04-30 11:44 | -27.35996 | 147.06466 | 27263 ft | 423 kts | 154° |
| 2026-04-30 11:44 | -27.38427 | 147.08353 | 27263 ft | 428 kts | 140° |
| 2026-04-30 11:44 | -27.40395 | 147.10887 | 27269 ft | 433 kts | 126° |
| 2026-04-30 11:45 | -27.41767 | 147.13913 | 27266 ft | 437 kts | 111° |
| 2026-04-30 11:45 | -27.42454 | 147.17252 | 27266 ft | 439 kts | 96° |
| 2026-04-30 11:45 | -27.42406 | 147.20686 | 27265 ft | 441 kts | 82° |
| 2026-04-30 11:45 | -27.41770 | 147.24063 | 27265 ft | 441 kts | 77° |
| 2026-04-30 11:46 | -27.41296 | 147.27464 | 27264 ft | 439 kts | 88° |
| 2026-04-30 11:46 | -27.41245 | 147.30865 | 27266 ft | 431 kts | 90° |
| 2026-04-30 11:46 | -27.41229 | 147.34188 | 27264 ft | 420 kts | 91° |
| 2026-04-30 11:46 | -27.41242 | 147.37441 | 27266 ft | 421 kts | 91° |
| 2026-04-30 11:47 | -27.41278 | 147.40759 | 27269 ft | 425 kts | 91° |
| 2026-04-30 11:47 | -27.41323 | 147.44087 | 27267 ft | 424 kts | 91° |
| 2026-04-30 11:47 | -27.41367 | 147.47398 | 27269 ft | 423 kts | 92° |
| 2026-04-30 11:47 | -27.41437 | 147.50708 | 27269 ft | 423 kts | 92° |
| 2026-04-30 11:48 | -27.41506 | 147.54017 | 27271 ft | 423 kts | 92° |
| 2026-04-30 11:48 | -27.41566 | 147.57327 | 27271 ft | 423 kts | 92° |
| 2026-04-30 11:48 | -27.41615 | 147.60633 | 27271 ft | 423 kts | 92° |
| 2026-04-30 11:48 | -27.41659 | 147.63950 | 27271 ft | 423 kts | 92° |
| 2026-04-30 11:49 | -27.41701 | 147.67261 | 27270 ft | 422 kts | 92° |
| 2026-04-30 11:49 | -27.41741 | 147.70561 | 27270 ft | 422 kts | 92° |
| 2026-04-30 11:49 | -27.41781 | 147.73868 | 27273 ft | 422 kts | 92° |
| 2026-04-30 11:49 | -27.41820 | 147.77170 | 27272 ft | 422 kts | 92° |
| 2026-04-30 11:50 | -27.41860 | 147.80481 | 27274 ft | 422 kts | 92° |
| 2026-04-30 11:50 | -27.41898 | 147.83785 | 27278 ft | 422 kts | 92° |
| 2026-04-30 11:50 | -27.41936 | 147.87087 | 27277 ft | 422 kts | 91° |
| 2026-04-30 11:50 | -27.41970 | 147.90391 | 27277 ft | 422 kts | 91° |
| 2026-04-30 11:51 | -27.42000 | 147.93649 | 27273 ft | 422 kts | 91° |
| 2026-04-30 11:51 | -27.42029 | 147.96955 | 27275 ft | 422 kts | 91° |
| 2026-04-30 11:51 | -27.42060 | 148.00255 | 27277 ft | 422 kts | 91° |
| 2026-04-30 11:51 | -27.42094 | 148.03562 | 27274 ft | 421 kts | 91° |
| 2026-04-30 11:52 | -27.42131 | 148.06861 | 27277 ft | 421 kts | 91° |
| 2026-04-30 11:52 | -27.42167 | 148.10167 | 27276 ft | 421 kts | 91° |
| 2026-04-30 11:52 | -27.42203 | 148.13468 | 27277 ft | 421 kts | 91° |
| 2026-04-30 11:52 | -27.42237 | 148.16728 | 27278 ft | 421 kts | 91° |
| 2026-04-30 11:53 | -27.42270 | 148.20022 | 27280 ft | 421 kts | 91° |
| 2026-04-30 11:53 | -27.42302 | 148.23360 | 27278 ft | 421 kts | 91° |
| 2026-04-30 11:53 | -27.42331 | 148.26619 | 27280 ft | 421 kts | 91° |
| 2026-04-30 11:53 | -27.42360 | 148.29918 | 27277 ft | 421 kts | 91° |
| 2026-04-30 11:54 | -27.42388 | 148.33210 | 27283 ft | 421 kts | 91° |
| 2026-04-30 11:54 | -27.42416 | 148.36508 | 27283 ft | 421 kts | 91° |
| 2026-04-30 11:54 | -27.42443 | 148.39820 | 27284 ft | 421 kts | 91° |
| 2026-04-30 11:54 | -27.42468 | 148.43128 | 27283 ft | 421 kts | 91° |
| 2026-04-30 11:55 | -27.42494 | 148.46431 | 27283 ft | 421 kts | 91° |
| 2026-04-30 11:55 | -27.42518 | 148.49725 | 27284 ft | 421 kts | 91° |
| 2026-04-30 11:55 | -27.42541 | 148.53020 | 27285 ft | 421 kts | 91° |
| 2026-04-30 11:55 | -27.42564 | 148.56321 | 27286 ft | 421 kts | 91° |
| 2026-04-30 11:56 | -27.42579 | 148.59579 | 27283 ft | 421 kts | 90° |
| 2026-04-30 11:56 | -27.42582 | 148.62877 | 27284 ft | 421 kts | 90° |
| 2026-04-30 11:56 | -27.42581 | 148.66173 | 27284 ft | 421 kts | 90° |
| 2026-04-30 11:56 | -27.42588 | 148.69485 | 27288 ft | 422 kts | 90° |
| 2026-04-30 11:57 | -27.42604 | 148.72784 | 27286 ft | 421 kts | 90° |
| 2026-04-30 11:57 | -27.42623 | 148.76082 | 27286 ft | 421 kts | 90° |
| 2026-04-30 11:57 | -27.42644 | 148.79380 | 27289 ft | 421 kts | 90° |
| 2026-04-30 11:57 | -27.42665 | 148.82677 | 27291 ft | 421 kts | 90° |
| 2026-04-30 11:58 | -27.42685 | 148.85976 | 27290 ft | 421 kts | 90° |
| 2026-04-30 11:58 | -27.42705 | 148.89275 | 27291 ft | 422 kts | 91° |
| 2026-04-30 11:58 | -27.42724 | 148.92578 | 27291 ft | 422 kts | 91° |
| 2026-04-30 11:58 | -27.42742 | 148.95840 | 27291 ft | 422 kts | 90° |
| 2026-04-30 11:59 | -27.42758 | 148.99144 | 27295 ft | 422 kts | 90° |
| 2026-04-30 11:59 | -27.42772 | 149.02448 | 27295 ft | 422 kts | 90° |
| 2026-04-30 11:59 | -27.42785 | 149.05761 | 27297 ft | 422 kts | 90° |
| 2026-04-30 11:59 | -27.42794 | 149.07983 | 27298 ft | 422 kts | 90° |
| 2026-04-30 12:00 | -27.42805 | 149.11285 | 27298 ft | 424 kts | 90° |
| 2026-04-30 12:00 | -27.42817 | 149.14675 | 27303 ft | 442 kts | 90° |
| 2026-04-30 12:00 | -27.42827 | 149.18214 | 27305 ft | 461 kts | 90° |
| 2026-04-30 12:00 | -27.42836 | 149.21903 | 27303 ft | 480 kts | 90° |
| 2026-04-30 12:01 | -27.42845 | 149.25731 | 27305 ft | 497 kts | 90° |
| 2026-04-30 12:01 | -27.42853 | 149.29657 | 27309 ft | 500 kts | 91° |
| 2026-04-30 12:01 | -27.42883 | 149.33510 | 27309 ft | 499 kts | 92° |
| 2026-04-30 12:01 | -27.42906 | 149.37416 | 27310 ft | 499 kts | 91° |
| 2026-04-30 12:02 | -27.42916 | 149.41323 | 27307 ft | 499 kts | 91° |
| 2026-04-30 12:02 | -27.42924 | 149.45212 | 27309 ft | 499 kts | 91° |
| 2026-04-30 12:02 | -27.42928 | 149.49140 | 27314 ft | 500 kts | 91° |
| 2026-04-30 12:02 | -27.42961 | 149.53050 | 27314 ft | 500 kts | 94° |
| 2026-04-30 12:03 | -27.43044 | 149.56965 | 27313 ft | 500 kts | 94° |
| 2026-04-30 12:03 | -27.43121 | 149.64808 | 27316 ft | 500 kts | 92° |
| 2026-04-30 12:03 | -27.43118 | 149.68722 | 27319 ft | 501 kts | 92° |
| 2026-04-30 12:04 | -27.43103 | 149.72641 | 27317 ft | 500 kts | 91° |
| 2026-04-30 12:04 | -27.43083 | 149.76557 | 27316 ft | 500 kts | 91° |
| 2026-04-30 12:04 | -27.43061 | 149.80482 | 27318 ft | 501 kts | 91° |
| 2026-04-30 12:04 | -27.43040 | 149.84398 | 27319 ft | 501 kts | 91° |
| 2026-04-30 12:05 | -27.43019 | 149.88318 | 27320 ft | 501 kts | 91° |
| 2026-04-30 12:05 | -27.42998 | 149.92248 | 27322 ft | 501 kts | 91° |
| 2026-04-30 12:05 | -27.42977 | 149.96120 | 27323 ft | 501 kts | 91° |
| 2026-04-30 12:05 | -27.42955 | 150.00048 | 27327 ft | 502 kts | 91° |
| 2026-04-30 12:06 | -27.42932 | 150.03977 | 27323 ft | 501 kts | 91° |
| 2026-04-30 12:06 | -27.42908 | 150.07900 | 27325 ft | 501 kts | 91° |
| 2026-04-30 12:06 | -27.42883 | 150.11817 | 27329 ft | 501 kts | 91° |
| 2026-04-30 12:06 | -27.42858 | 150.15739 | 27329 ft | 501 kts | 91° |
| 2026-04-30 12:07 | -27.42832 | 150.19658 | 27327 ft | 501 kts | 91° |
| 2026-04-30 12:07 | -27.42805 | 150.23581 | 27329 ft | 501 kts | 91° |
| 2026-04-30 12:07 | -27.42777 | 150.27498 | 27332 ft | 501 kts | 91° |
| 2026-04-30 12:07 | -27.42749 | 150.31426 | 27331 ft | 501 kts | 91° |
| 2026-04-30 12:08 | -27.42721 | 150.35346 | 27329 ft | 501 kts | 90° |
| 2026-04-30 12:08 | -27.42692 | 150.39270 | 27329 ft | 500 kts | 90° |
| 2026-04-30 12:08 | -27.42662 | 150.43187 | 27329 ft | 500 kts | 90° |
| 2026-04-30 12:08 | -27.42631 | 150.47112 | 27329 ft | 501 kts | 90° |
| 2026-04-30 12:09 | -27.42600 | 150.51032 | 27331 ft | 500 kts | 90° |
| 2026-04-30 12:09 | -27.42568 | 150.54949 | 27331 ft | 500 kts | 90° |
| 2026-04-30 12:09 | -27.42535 | 150.58862 | 27332 ft | 500 kts | 90° |
| 2026-04-30 12:09 | -27.42501 | 150.62780 | 27329 ft | 500 kts | 90° |
| 2026-04-30 12:10 | -27.42467 | 150.66652 | 27331 ft | 500 kts | 90° |
| 2026-04-30 12:10 | -27.42431 | 150.70565 | 27330 ft | 500 kts | 90° |
| 2026-04-30 12:10 | -27.42395 | 150.74478 | 27331 ft | 500 kts | 90° |
| 2026-04-30 12:10 | -27.42357 | 150.78406 | 27331 ft | 501 kts | 90° |
| 2026-04-30 12:11 | -27.42319 | 150.82321 | 27335 ft | 501 kts | 90° |
| 2026-04-30 12:11 | -27.42280 | 150.86215 | 27329 ft | 492 kts | 90° |
| 2026-04-30 12:11 | -27.42239 | 150.90014 | 27332 ft | 477 kts | 90° |
| 2026-04-30 12:11 | -27.42196 | 150.93690 | 27332 ft | 463 kts | 90° |
| 2026-04-30 12:12 | -27.42145 | 150.97303 | 27335 ft | 463 kts | 90° |
| 2026-04-30 12:12 | -27.42097 | 151.00951 | 27335 ft | 468 kts | 89° |
| 2026-04-30 12:12 | -27.42038 | 151.04611 | 27333 ft | 468 kts | 89° |
| 2026-04-30 12:12 | -27.41978 | 151.08273 | 27211 ft | 468 kts | 89° |
| 2026-04-30 12:13 | -27.41926 | 151.11932 | 26962 ft | 467 kts | 89° |
| 2026-04-30 12:13 | -27.41880 | 151.15567 | 26717 ft | 463 kts | 90° |
| 2026-04-30 12:13 | -27.41839 | 151.19179 | 26452 ft | 460 kts | 90° |
| 2026-04-30 12:13 | -27.41798 | 151.22789 | 25947 ft | 462 kts | 90° |
| 2026-04-30 12:14 | -27.41756 | 151.26419 | 25268 ft | 465 kts | 90° |
| 2026-04-30 12:14 | -27.41714 | 151.30030 | 24600 ft | 468 kts | 90° |
| 2026-04-30 12:14 | -27.41668 | 151.33698 | 24036 ft | 467 kts | 90° |
| 2026-04-30 12:14 | -27.41619 | 151.37340 | 23523 ft | 463 kts | 89° |
| 2026-04-30 12:15 | -27.41565 | 151.40944 | 23027 ft | 459 kts | 89° |
| 2026-04-30 12:15 | -27.41510 | 151.44522 | 22520 ft | 454 kts | 89° |
| 2026-04-30 12:15 | -27.41459 | 151.48057 | 22026 ft | 449 kts | 90° |
| 2026-04-30 12:15 | -27.41410 | 151.51561 | 21519 ft | 445 kts | 90° |
| 2026-04-30 12:16 | -27.41363 | 151.55035 | 21033 ft | 441 kts | 90° |
| 2026-04-30 12:16 | -27.41317 | 151.58465 | 20556 ft | 437 kts | 90° |
| 2026-04-30 12:16 | -27.41271 | 151.61829 | 20076 ft | 433 kts | 96° |
| 2026-04-30 12:16 | -27.41394 | 151.65223 | 19416 ft | 427 kts | 96° |
| 2026-04-30 12:17 | -27.41451 | 151.71797 | 18370 ft | 419 kts | 89° |
| 2026-04-30 12:17 | -27.41312 | 151.75054 | 17826 ft | 414 kts | 89° |
| 2026-04-30 12:17 | -27.41217 | 151.78268 | 17290 ft | 409 kts | 90° |
| 2026-04-30 12:18 | -27.41174 | 151.81451 | 16732 ft | 404 kts | 90° |
| 2026-04-30 12:18 | -27.41159 | 151.84597 | 16176 ft | 399 kts | 91° |
| 2026-04-30 12:18 | -27.41161 | 151.87702 | 15618 ft | 393 kts | 91° |
| 2026-04-30 12:18 | -27.41168 | 151.90745 | 14734 ft | 386 kts | 91° |
| 2026-04-30 12:19 | -27.41172 | 151.93749 | 13845 ft | 384 kts | 90° |
| 2026-04-30 12:19 | -27.41171 | 151.96737 | 13218 ft | 380 kts | 91° |
| 2026-04-30 12:19 | -27.41198 | 151.99690 | 12586 ft | 376 kts | 92° |
| 2026-04-30 12:19 | -27.41224 | 152.02623 | 11991 ft | 372 kts | 91° |
| 2026-04-30 12:20 | -27.41232 | 152.05526 | 11367 ft | 369 kts | 91° |
| 2026-04-30 12:20 | -27.41224 | 152.08403 | 10922 ft | 362 kts | 91° |
| 2026-04-30 12:20 | -27.41208 | 152.11140 | 10760 ft | 346 kts | 90° |
| 2026-04-30 12:20 | -27.41188 | 152.13790 | 10611 ft | 331 kts | 90° |
| 2026-04-30 12:21 | -27.41166 | 152.16324 | 10480 ft | 316 kts | 90° |
| 2026-04-30 12:21 | -27.41113 | 152.18733 | 10359 ft | 301 kts | 86° |
| 2026-04-30 12:21 | -27.41028 | 152.21034 | 10132 ft | 289 kts | 87° |
| 2026-04-30 12:21 | -27.40968 | 152.23269 | 9727 ft | 284 kts | 88° |
| 2026-04-30 12:22 | -27.40935 | 152.25473 | 9272 ft | 280 kts | 89° |
| 2026-04-30 12:22 | -27.40924 | 152.27653 | 8834 ft | 276 kts | 90° |
| 2026-04-30 12:22 | -27.40921 | 152.29796 | 8409 ft | 272 kts | 90° |
| 2026-04-30 12:22 | -27.40922 | 152.31903 | 7981 ft | 267 kts | 90° |
| 2026-04-30 12:23 | -27.40921 | 152.33988 | 7539 ft | 264 kts | 91° |
| 2026-04-30 12:23 | -27.40919 | 152.36038 | 7110 ft | 260 kts | 91° |
| 2026-04-30 12:23 | -27.40915 | 152.38034 | 6687 ft | 256 kts | 91° |
| 2026-04-30 12:23 | -27.40912 | 152.39372 | 6452 ft | 251 kts | 91° |
| 2026-04-30 12:24 | -27.40907 | 152.41296 | 6153 ft | 241 kts | 91° |
| 2026-04-30 12:24 | -27.40902 | 152.43725 | 5777 ft | 228 kts | 91° |
| 2026-04-30 12:24 | -27.40900 | 152.44917 | 5592 ft | 223 kts | 91° |
| 2026-04-30 12:24 | -27.40899 | 152.47389 | 5220 ft | 259 kts | 91° |
| 2026-04-30 12:25 | -27.40896 | 152.48781 | 5158 ft | 264 kts | 91° |
| 2026-04-30 12:25 | -27.40885 | 152.50836 | 5108 ft | 259 kts | 91° |
| 2026-04-30 12:25 | -27.40889 | 152.52818 | 4923 ft | 247 kts | 97° |
| 2026-04-30 12:25 | -27.41345 | 152.54630 | 4648 ft | 240 kts | 111° |
| 2026-04-30 12:26 | -27.41936 | 152.56401 | 4378 ft | 241 kts | 111° |
| 2026-04-30 12:26 | -27.42514 | 152.58153 | 4105 ft | 237 kts | 111° |
| 2026-04-30 12:26 | -27.43072 | 152.59866 | 3745 ft | 235 kts | 111° |
| 2026-04-30 12:26 | -27.43748 | 152.61530 | 3578 ft | 237 kts | 125° |
| 2026-04-30 12:27 | -27.44953 | 152.62794 | 3480 ft | 238 kts | 144° |
| 2026-04-30 12:27 | -27.46443 | 152.63655 | 3328 ft | 244 kts | 153° |
| 2026-04-30 12:27 | -27.48017 | 152.64333 | 3052 ft | 238 kts | 157° |
| 2026-04-30 12:27 | -27.49534 | 152.65004 | 2763 ft | 229 kts | 156° |
| 2026-04-30 12:28 | -27.50997 | 152.65635 | 2461 ft | 222 kts | 156° |
| 2026-04-30 12:28 | -27.52375 | 152.66239 | 2194 ft | 201 kts | 157° |
| 2026-04-30 12:28 | -27.53614 | 152.66782 | 1912 ft | 186 kts | 156° |
| 2026-04-30 12:28 | -27.54779 | 152.67294 | 1710 ft | 172 kts | 156° |
| 2026-04-30 12:29 | -27.55840 | 152.67760 | 1471 ft | 156 kts | 157° |
| 2026-04-30 12:29 | -27.56811 | 152.68187 | 1245 ft | 146 kts | 158° |
| 2026-04-30 12:29 | -27.57792 | 152.68624 | 1034 ft | 150 kts | 158° |
| 2026-04-30 12:29 | -27.58724 | 152.69036 | 842 ft | 141 kts | 160° |
| 2026-04-30 12:30 | -27.59653 | 152.69435 | 639 ft | 140 kts | 160° |
| 2026-04-30 12:30 | -27.60570 | 152.69824 | 464 ft | 144 kts | 161° |
| 2026-04-30 12:30 | -27.61472 | 152.70221 | 248 ft | 137 kts | 159° |
| 2026-04-30 12:30 | -27.62394 | 152.70622 | 118 ft | 141 kts | 159° |
| 2026-04-30 12:31 | -27.63218 | 152.70984 | 103 ft | 103 kts | 159° |
| 2026-04-30 12:31 | -27.63694 | 152.71193 | 107 ft | 45 kts | 159° |
| 2026-04-30 12:31 | -27.63881 | 152.71274 | 108 ft | 27 kts | 159° |
| 2026-04-30 12:31 | -27.64038 | 152.71343 | 108 ft | 16 kts | 160° |
| 2026-04-30 12:32 | -27.64131 | 152.71298 | 111 ft | 16 kts | 232° |
| 2026-04-30 12:32 | -27.64159 | 152.71193 | 111 ft | 15 kts | 298° |
| 2026-04-30 12:32 | -27.64064 | 152.71138 | 109 ft | 18 kts | 337° |
| 2026-04-30 12:32 | -27.63933 | 152.71082 | 110 ft | 22 kts | 339° |
| 2026-04-30 12:33 | -27.63768 | 152.71009 | 107 ft | 29 kts | 338° |
| 2026-04-30 12:33 | -27.63568 | 152.70922 | 106 ft | 32 kts | 340° |
| 2026-04-30 12:33 | -27.63345 | 152.70825 | 105 ft | 35 kts | 338° |
| 2026-04-30 12:33 | -27.63116 | 152.70725 | 104 ft | 36 kts | 339° |
| 2026-04-30 12:34 | -27.62898 | 152.70627 | 107 ft | 32 kts | 338° |
| 2026-04-30 12:34 | -27.62696 | 152.70537 | 106 ft | 25 kts | 338° |
| 2026-04-30 12:34 | -27.62563 | 152.70475 | 106 ft | 17 kts | 326° |
| 2026-04-30 12:34 | -27.62568 | 152.70364 | 103 ft | 12 kts | 249° |
| 2026-04-30 12:35 | -27.62531 | 152.70308 | 103 ft | 8 kts | 335° |
| 2026-04-30 12:35 | -27.62515 | 152.70301 | 102 ft | 0 kts | 338° |